Estación Meteorológica Peña el Pijo (Robertgarden) [ 03/23/19 14:07:54 CET ]

Fecha Hora Presion(HPa) Temp (°C) Humedad % Rocio (°C) Viento ( m/s) Direccion Lluvia 1Hora(mm) Lluvia 24H(mm) LLuvia Total(mm)
2019-Mar-04 01:01:36 1011.800 5.9 53 -3.0         183.37
2019-Mar-04 02:03:07 1011.700 7.8 53 -1.2         183.37
2019-Mar-04 03:01:46 1011.300 8.1 57 0.0         183.37
2019-Mar-04 04:01:34 1010.500 9.3 57 1.2         183.37
2019-Mar-04 05:01:45 1010.200 9.6 56 1.2         183.37
2019-Mar-04 06:01:41 1010.100 8.6 58 0.8         183.37
2019-Mar-04 07:01:38 1010.200 6.9 64 0.3         183.37
2019-Mar-04 08:01:43 1010.500 5.8 67 0.1         183.37
2019-Mar-04 09:01:40 1010.500 10.5 67 4.6         183.37
2019-Mar-04 10:01:15 1010.900 15.0 47 4.1 0.8 NNW     183.37
2019-Mar-04 11:01:24 1010.900 16.4 44 4.0 1.5 NW     183.37
2019-Mar-04 12:01:31 1011.000 16.8 38 2.3         183.37
2019-Mar-04 13:01:46 1010.500 18.1 32 1.1         183.37
2019-Mar-04 14:01:43 1010.000 19.8 26 -0.5         183.37
2019-Mar-04 15:01:56 1009.300 19.9 26 -0.4         183.37
2019-Mar-04 16:01:56 1008.900 18.9 30 1.0         183.37
2019-Mar-04 17:01:51 1009.000 18.5 36 3.0 2.8 NW     183.37
2019-Mar-04 18:01:51 1009.000 15.8 45 3.8         183.37
2019-Mar-04 19:01:49 1009.100 13.8 51 3.9 2.6 NNW     183.37
2019-Mar-04 20:01:41 1009.300 12.1 57 3.8         183.37
2019-Mar-04 21:02:01 1009.600 11.4 61 4.1         183.37
2019-Mar-04 22:02:05 1010.000 11.2 62 4.1         183.37
2019-Mar-04 23:01:47 1010.200 10.8 63 4.0         183.37

Temperatura Máxima:19°    Temperatura Mínima:
Presión Máxima:1011.800 Hpa    Presión Mínima:1008.900 Hpa


Volver